createdAt,value
2024-03-13T00:00:08.557Z,97776.16
2024-03-13T00:02:35.256Z,97778.02
2024-03-13T00:05:03.483Z,97778.70
2024-03-13T00:07:33.177Z,97775.79
2024-03-13T00:09:59.947Z,97776.19
2024-03-13T00:12:26.755Z,97776.80
2024-03-13T00:14:53.437Z,97776.92
2024-03-13T00:17:21.073Z,97776.45
2024-03-13T00:19:49.150Z,97774.90
2024-03-13T00:22:16.313Z,97773.56
2024-03-13T00:24:43.165Z,97775.02
2024-03-13T00:27:10.193Z,97779.28
2024-03-13T00:29:36.851Z,97778.48
2024-03-13T00:32:04.177Z,97781.27
2024-03-13T00:34:30.952Z,97779.19
2024-03-13T00:36:58.019Z,97778.88
2024-03-13T00:39:24.744Z,97780.49
2024-03-13T00:41:51.707Z,97782.30
2024-03-13T00:44:18.456Z,97783.23
2024-03-13T00:46:45.206Z,97784.42
2024-03-13T00:49:12.095Z,97784.14
2024-03-13T00:51:39.407Z,97787.44
2024-03-13T00:54:06.568Z,97783.77
2024-03-13T00:56:33.727Z,97781.65
2024-03-13T00:59:01.163Z,97783.94
2024-03-13T01:01:28.021Z,97781.53
2024-03-13T01:03:54.893Z,97779.48
2024-03-13T01:06:21.621Z,97778.58
2024-03-13T01:08:48.356Z,97782.45
2024-03-13T01:11:15.528Z,97785.03
2024-03-13T01:13:42.673Z,97783.39
2024-03-13T01:16:10.306Z,97786.34
2024-03-13T01:18:37.281Z,97787.85
2024-03-13T01:21:04.245Z,97787.54
2024-03-13T01:23:31.072Z,97788.64
2024-03-13T01:25:58.056Z,97792.05
2024-03-13T01:28:24.906Z,97789.61
2024-03-13T01:30:51.901Z,97785.59
2024-03-13T01:33:18.612Z,97789.35
2024-03-13T01:35:45.554Z,97789.98
2024-03-13T01:38:12.296Z,97793.21
2024-03-13T01:40:39.028Z,97794.79
2024-03-13T01:43:06.007Z,97790.19
2024-03-13T01:45:48.025Z,97788.73
2024-03-13T01:48:14.944Z,97783.95
2024-03-13T01:50:43.950Z,97785.42
2024-03-13T01:53:10.748Z,97793.04
2024-03-13T01:55:39.537Z,97792.10
2024-03-13T01:58:06.369Z,97793.20
2024-03-13T02:00:34.006Z,97792.73
2024-03-13T02:03:01.359Z,97794.92
2024-03-13T02:05:28.314Z,97793.52
2024-03-13T02:07:55.774Z,97798.77
2024-03-13T02:10:22.797Z,97796.11
2024-03-13T02:13:10.883Z,97798.52
2024-03-13T02:15:41.983Z,97796.70
2024-03-13T02:18:27.516Z,97798.96
2024-03-13T02:20:55.090Z,97796.91
2024-03-13T02:23:22.760Z,97789.10
2024-03-13T02:25:50.345Z,97793.91
2024-03-13T02:28:17.086Z,97791.11
2024-03-13T02:30:44.063Z,97790.30
2024-03-13T02:33:11.217Z,97789.17
2024-03-13T02:35:37.944Z,97789.30
2024-03-13T02:38:05.409Z,97791.70
2024-03-13T02:40:32.194Z,97792.17
2024-03-13T02:42:59.057Z,97797.61
2024-03-13T02:45:25.766Z,97799.26
2024-03-13T02:47:52.665Z,97802.06
2024-03-13T02:50:19.468Z,97799.74
2024-03-13T02:52:46.224Z,97803.84
2024-03-13T02:55:13.103Z,97802.73
2024-03-13T02:57:40.129Z,97807.14
2024-03-13T03:00:08.260Z,97810.31
2024-03-13T03:02:35.575Z,97805.82
2024-03-13T03:05:03.248Z,97805.81
2024-03-13T03:07:32.238Z,97811.08
2024-03-13T03:09:59.543Z,97812.07
2024-03-13T03:12:27.713Z,97812.39
2024-03-13T03:14:54.936Z,97811.31
2024-03-13T03:17:25.332Z,97809.21
2024-03-13T03:19:52.154Z,97809.97
2024-03-13T03:22:19.792Z,97816.58
2024-03-13T03:24:46.685Z,97822.36
2024-03-13T03:27:13.814Z,97826.73
2024-03-13T03:29:40.564Z,97825.65
2024-03-13T03:32:07.438Z,97829.42
2024-03-13T03:34:36.357Z,97827.91
2024-03-13T03:37:03.237Z,97821.18
2024-03-13T03:39:30.492Z,97825.80
2024-03-13T03:41:57.803Z,97824.36
2024-03-13T03:44:24.757Z,97825.56
2024-03-13T03:46:51.532Z,97830.72
2024-03-13T03:49:18.274Z,97832.20
2024-03-13T03:51:45.145Z,97835.61
2024-03-13T03:54:11.864Z,97834.71
2024-03-13T03:56:38.709Z,97839.05
2024-03-13T03:59:09.236Z,97840.95
2024-03-13T04:01:37.687Z,97837.53
2024-03-13T04:04:05.052Z,97842.30
2024-03-13T04:06:32.766Z,97847.54
2024-03-13T04:08:59.519Z,97846.52
2024-03-13T04:11:26.415Z,97848.30
2024-03-13T04:13:53.437Z,97850.65
2024-03-13T04:16:20.358Z,97852.88
2024-03-13T04:18:48.015Z,97853.77
2024-03-13T04:21:14.787Z,97848.57
2024-03-13T04:23:41.634Z,97852.09
2024-03-13T04:26:08.494Z,97852.69
2024-03-13T04:28:35.815Z,97858.34
2024-03-13T04:31:02.713Z,97864.05
2024-03-13T04:33:30.088Z,97863.02
2024-03-13T04:35:56.837Z,97865.60
2024-03-13T04:38:23.922Z,97863.16
2024-03-13T04:40:50.742Z,97863.25
2024-03-13T04:43:17.869Z,97867.91
2024-03-13T04:45:44.713Z,97868.01
2024-03-13T04:48:11.713Z,97865.93
2024-03-13T04:50:38.575Z,97868.14
2024-03-13T04:53:05.516Z,97866.98
2024-03-13T04:55:32.647Z,97868.00
2024-03-13T04:57:59.681Z,97865.91
2024-03-13T05:00:26.830Z,97864.86
2024-03-13T05:02:54.126Z,97869.15
2024-03-13T05:05:21.009Z,97871.97
2024-03-13T05:07:47.898Z,97876.84
2024-03-13T05:10:15.055Z,97877.05
2024-03-13T05:12:41.982Z,97881.98
2024-03-13T05:15:09.137Z,97880.54
2024-03-13T05:17:36.613Z,97880.18
2024-03-13T05:20:04.534Z,97881.02
2024-03-13T05:22:31.437Z,97885.35
2024-03-13T05:24:58.256Z,97889.80
2024-03-13T05:27:25.751Z,97894.81
2024-03-13T05:29:53.334Z,97893.58
2024-03-13T05:32:20.117Z,97899.23
2024-03-13T05:34:46.937Z,97898.07
2024-03-13T05:37:13.737Z,97893.27
2024-03-13T05:39:41.008Z,97896.82
2024-03-13T05:42:08.510Z,97898.29
2024-03-13T05:44:35.341Z,97902.04
2024-03-13T05:47:02.213Z,97903.91
2024-03-13T05:49:29.143Z,97905.80
2024-03-13T05:51:56.058Z,97907.23
2024-03-13T05:54:22.887Z,97907.30
2024-03-13T05:56:49.609Z,97912.63
2024-03-13T05:59:16.374Z,97904.34
2024-03-13T06:01:43.227Z,97911.84
2024-03-13T06:04:10.083Z,97916.12
2024-03-13T06:06:36.774Z,97918.92
2024-03-13T06:09:03.418Z,97923.18
2024-03-13T06:11:30.214Z,97922.21
2024-03-13T06:13:57.147Z,97925.33
2024-03-13T06:16:24.032Z,97927.30
2024-03-13T06:18:51.010Z,97928.41
2024-03-13T06:21:17.780Z,97929.43
2024-03-13T06:23:44.507Z,97929.77
2024-03-13T06:26:11.349Z,97934.46
2024-03-13T06:28:38.074Z,97938.95
2024-03-13T06:31:04.949Z,97936.04
2024-03-13T06:33:31.669Z,97937.64
2024-03-13T06:35:58.438Z,97938.73
2024-03-13T06:38:25.270Z,97938.98
2024-03-13T06:40:52.021Z,97941.60
2024-03-13T06:43:19.198Z,97941.83
2024-03-13T06:45:46.016Z,97942.77
2024-03-13T06:48:13.757Z,97946.41
2024-03-13T06:50:40.655Z,97946.29
2024-03-13T06:53:07.509Z,97952.71
2024-03-13T06:55:34.468Z,97956.68
2024-03-13T06:58:01.639Z,97960.20
2024-03-13T07:00:28.426Z,97966.16
2024-03-13T07:02:55.845Z,97966.11
2024-03-13T07:05:22.694Z,97972.55
2024-03-13T07:07:49.548Z,97971.41
2024-03-13T07:10:16.805Z,97968.48
2024-03-13T07:12:43.765Z,97974.10
2024-03-13T07:15:10.509Z,97974.08
2024-03-13T07:17:40.451Z,97974.80
2024-03-13T07:20:07.775Z,97975.70
2024-03-13T07:22:34.623Z,97979.73
2024-03-13T07:25:01.563Z,97977.59
2024-03-13T07:27:28.356Z,97984.62
2024-03-13T07:29:55.106Z,97982.88
2024-03-13T07:32:21.770Z,97988.14
2024-03-13T07:34:48.766Z,97990.64
2024-03-13T07:37:15.604Z,97993.60
2024-03-13T07:39:42.425Z,97989.25
2024-03-13T07:42:09.188Z,97988.74
2024-03-13T07:44:36.014Z,97988.87
2024-03-13T07:47:02.873Z,97995.96
2024-03-13T07:49:29.981Z,97997.89
2024-03-13T07:51:56.932Z,97997.67
2024-03-13T07:54:23.758Z,97998.63
2024-03-13T07:56:50.481Z,98001.69
2024-03-13T07:59:17.237Z,98004.11
2024-03-13T08:01:44.197Z,98008.64
2024-03-13T08:04:10.925Z,98009.14
2024-03-13T09:06:49.775Z,98049.73
2024-03-13T09:09:17.264Z,98062.98
2024-03-13T09:11:44.627Z,98057.54
2024-03-13T09:14:11.566Z,98058.02
2024-03-13T09:16:38.429Z,98064.59
2024-03-13T09:19:05.566Z,98066.04
2024-03-13T09:21:32.788Z,98065.47
2024-03-13T09:24:00.138Z,98072.36
2024-03-13T09:26:27.546Z,98072.45
2024-03-13T09:28:56.663Z,98082.02
2024-03-13T09:31:23.931Z,98072.95
2024-03-13T09:33:50.937Z,98080.86
2024-03-13T09:36:17.960Z,98079.64
2024-03-13T09:38:44.892Z,98081.63
2024-03-13T09:41:13.579Z,98083.61
2024-03-13T09:43:41.158Z,98087.45
2024-03-13T09:46:08.315Z,98086.61
2024-03-13T09:48:35.657Z,98087.84
2024-03-13T09:51:07.917Z,98088.86
2024-03-13T09:53:39.368Z,98093.33
2024-03-13T09:56:06.572Z,98095.58
2024-03-13T09:58:33.620Z,98098.55
2024-03-13T10:01:04.232Z,98097.78
2024-03-13T10:03:34.232Z,98099.16
2024-03-13T10:06:08.528Z,98102.39
2024-03-13T10:08:36.198Z,98105.18
2024-03-13T10:11:03.784Z,98109.98
2024-03-13T10:13:33.128Z,98112.67
2024-03-13T10:16:03.101Z,98114.73
2024-03-13T10:18:31.983Z,98117.45
2024-03-13T10:21:08.272Z,98115.25
2024-03-13T10:23:39.517Z,98121.17
2024-03-13T10:26:07.343Z,98115.33
2024-03-13T10:28:35.462Z,98118.55
2024-03-13T10:31:05.323Z,98116.56
2024-03-13T10:33:33.073Z,98121.54
2024-03-13T10:36:00.023Z,98121.12
2024-03-13T10:38:27.400Z,98125.95
2024-03-13T10:40:54.114Z,98128.15
2024-03-13T10:43:20.937Z,98126.29
2024-03-13T10:45:50.659Z,98121.47
2024-03-13T10:48:17.474Z,98126.20
2024-03-13T10:50:44.178Z,98124.24
2024-03-13T10:53:11.131Z,98126.19
2024-03-13T10:55:41.036Z,98127.91
2024-03-13T10:58:24.249Z,98122.48
2024-03-13T11:00:51.407Z,98120.01
2024-03-13T11:03:19.089Z,98126.81
2024-03-13T11:05:46.378Z,98128.38
2024-03-13T11:08:13.237Z,98126.63
2024-03-13T11:10:40.190Z,98130.59
2024-03-13T11:13:07.841Z,98128.56
2024-03-13T11:15:47.359Z,98131.82
2024-03-13T11:18:14.548Z,98129.60
2024-03-13T11:21:01.735Z,98129.42
2024-03-13T11:23:35.600Z,98130.65
2024-03-13T11:26:07.207Z,98129.66
2024-03-13T11:28:34.666Z,98127.81
2024-03-13T11:31:02.383Z,98126.23
2024-03-13T11:33:29.194Z,98125.17
2024-03-13T11:35:57.351Z,98126.14
2024-03-13T11:38:24.585Z,98119.08
2024-03-13T11:40:52.760Z,98119.45
2024-03-13T11:43:23.657Z,98121.86
2024-03-13T11:45:50.200Z,98123.22
2024-03-13T11:48:19.256Z,98123.35
2024-03-13T11:51:12.428Z,98130.60
2024-03-13T11:53:39.639Z,98125.99
2024-03-13T11:56:06.580Z,98128.23
2024-03-13T11:58:35.269Z,98126.77
2024-03-13T12:01:02.617Z,98124.90
2024-03-13T12:03:39.514Z,98124.14
2024-03-13T12:06:06.284Z,98122.55
2024-03-13T12:08:33.101Z,98117.90
2024-03-13T12:10:59.912Z,98121.58
2024-03-13T12:13:26.801Z,98117.35
2024-03-13T12:15:53.444Z,98117.74
2024-03-13T12:18:20.347Z,98118.01
2024-03-13T12:20:47.590Z,98116.84
2024-03-13T12:23:15.055Z,98112.54
2024-03-13T12:25:42.998Z,98111.36
2024-03-13T12:28:14.436Z,98108.41
2024-03-13T12:30:41.190Z,98109.67
2024-03-13T12:33:08.475Z,98107.59
2024-03-13T12:35:35.283Z,98109.25
2024-03-13T12:38:01.908Z,98112.02
2024-03-13T12:40:28.710Z,98109.11
2024-03-13T12:42:55.805Z,98111.10
2024-03-13T12:45:22.767Z,98109.20
2024-03-13T12:47:50.018Z,98105.68
2024-03-13T12:50:18.401Z,98107.77
2024-03-13T12:52:49.129Z,98108.10
2024-03-13T12:55:17.414Z,98112.70
2024-03-13T12:57:44.233Z,98107.83
2024-03-13T13:00:14.677Z,98110.30
2024-03-13T13:02:46.247Z,98111.50
2024-03-13T13:05:16.589Z,98108.20
2024-03-13T13:07:49.555Z,98108.53
2024-03-13T13:10:16.293Z,98111.77
2024-03-13T13:12:43.085Z,98112.65
2024-03-13T13:15:09.952Z,98113.92
2024-03-13T13:17:36.949Z,98113.31
2024-03-13T13:20:04.130Z,98115.82
2024-03-13T13:22:30.747Z,98117.35
2024-03-13T13:24:57.499Z,98113.55
2024-03-13T13:27:24.261Z,98116.98
2024-03-13T13:29:51.464Z,98115.98
2024-03-13T13:32:18.301Z,98122.85
2024-03-13T13:34:45.225Z,98118.82
2024-03-13T13:37:12.025Z,98118.48
2024-03-13T13:39:38.820Z,98120.70
2024-03-13T13:42:06.122Z,98118.33
2024-03-13T13:44:32.930Z,98119.27
2024-03-13T13:46:59.771Z,98118.54
2024-03-13T13:49:26.421Z,98115.23
2024-03-13T13:51:53.180Z,98117.27
2024-03-13T13:54:19.851Z,98117.74
2024-03-13T13:56:47.322Z,98123.55
2024-03-13T13:59:14.029Z,98124.27
2024-03-13T14:01:40.665Z,98126.66
2024-03-13T14:04:07.331Z,98128.89
2024-03-13T14:06:34.348Z,98130.39
2024-03-13T14:09:01.046Z,98129.30
2024-03-13T14:11:27.902Z,98128.48
2024-03-13T14:13:55.003Z,98130.29
2024-03-13T14:16:21.793Z,98131.92
2024-03-13T14:18:48.802Z,98131.38
2024-03-13T14:21:15.815Z,98137.30
2024-03-13T14:23:44.631Z,98136.02
2024-03-13T14:26:11.614Z,98135.30
2024-03-13T14:28:38.679Z,98137.62
2024-03-13T14:31:11.077Z,98140.50
2024-03-13T14:33:37.984Z,98141.34
2024-03-13T14:36:05.580Z,98141.02
2024-03-13T14:38:32.307Z,98135.98
2024-03-13T14:40:59.085Z,98140.40
2024-03-13T14:43:25.737Z,98140.86
2024-03-13T14:45:52.388Z,98143.25
2024-03-13T14:48:19.409Z,98144.48
2024-03-13T14:50:58.685Z,98146.30
2024-03-13T14:53:25.434Z,98151.71
2024-03-13T14:55:52.173Z,98154.08
2024-03-13T14:58:18.815Z,98153.86
2024-03-13T15:00:45.774Z,98153.40
2024-03-13T15:03:12.568Z,98157.61
2024-03-13T15:05:42.556Z,98156.13
2024-03-13T15:08:09.400Z,98159.66
2024-03-13T15:10:36.132Z,98164.38
2024-03-13T15:13:02.998Z,98163.80
2024-03-13T15:15:30.070Z,98163.87
2024-03-13T15:17:57.011Z,98164.52
2024-03-13T15:20:23.841Z,98168.70
2024-03-13T15:22:50.584Z,98169.80
2024-03-13T15:25:17.235Z,98168.10
2024-03-13T15:27:43.979Z,98168.59
2024-03-13T15:30:14.603Z,98170.64
2024-03-13T15:32:43.489Z,98173.43
2024-03-13T15:35:10.474Z,98177.98
2024-03-13T15:37:37.418Z,98176.58
2024-03-13T15:40:04.889Z,98181.59
2024-03-13T15:42:31.658Z,98180.48
2024-03-13T15:44:58.545Z,98182.06
2024-03-13T15:47:25.323Z,98180.33
2024-03-13T15:49:51.967Z,98182.43
2024-03-13T15:52:18.925Z,98182.45
2024-03-13T15:54:45.672Z,98185.00
2024-03-13T15:57:12.479Z,98185.84
2024-03-13T15:59:39.430Z,98189.48
2024-03-13T16:02:06.534Z,98190.34
2024-03-13T16:04:33.271Z,98193.89
2024-03-13T16:07:00.640Z,98192.37
2024-03-13T16:09:27.403Z,98194.77
2024-03-13T16:11:54.360Z,98197.40
2024-03-13T16:14:21.079Z,98197.80
2024-03-13T16:16:47.921Z,98202.98
2024-03-13T16:19:14.671Z,98203.00
2024-03-13T16:21:41.733Z,98206.55
2024-03-13T16:24:08.446Z,98207.09
2024-03-13T16:26:35.218Z,98206.16
2024-03-13T16:29:01.870Z,98209.85
2024-03-13T16:31:28.533Z,98212.93
2024-03-13T16:33:55.308Z,98215.51
2024-03-13T16:36:27.355Z,98216.05
2024-03-13T16:38:54.164Z,98219.55
2024-03-13T16:41:21.076Z,98225.77
2024-03-13T16:43:47.793Z,98224.91
2024-03-13T16:46:14.658Z,98225.30
2024-03-13T16:48:41.489Z,98229.36
2024-03-13T16:51:08.441Z,98230.45
2024-03-13T16:53:35.490Z,98236.04
2024-03-13T16:56:02.834Z,98232.60
2024-03-13T16:58:30.678Z,98237.61
2024-03-13T17:00:57.641Z,98241.98
2024-03-13T17:03:24.749Z,98240.77
2024-03-13T17:05:51.642Z,98243.68
2024-03-13T17:08:18.297Z,98238.85
2024-03-13T17:10:45.107Z,98244.77
2024-03-13T17:13:11.854Z,98242.96
2024-03-13T17:15:38.592Z,98240.62
2024-03-13T17:18:05.753Z,98241.27
2024-03-13T17:20:32.607Z,98244.98
2024-03-13T17:22:59.267Z,98245.14
2024-03-13T17:25:25.989Z,98248.39
2024-03-13T17:27:52.753Z,98253.55
2024-03-13T17:30:19.558Z,98259.48
2024-03-13T17:32:46.436Z,98260.29
2024-03-13T17:35:14.867Z,98266.85
2024-03-13T17:37:41.953Z,98263.39
2024-03-13T17:40:11.841Z,98259.90
2024-03-13T17:42:39.859Z,98260.25
2024-03-13T17:45:07.914Z,98260.64
2024-03-13T17:47:35.983Z,98262.46
2024-03-13T17:50:02.738Z,98256.73
2024-03-13T17:52:29.563Z,98261.34
2024-03-13T17:54:56.132Z,98265.24
2024-03-13T17:57:22.962Z,98264.77
2024-03-13T17:59:49.899Z,98267.71
2024-03-13T18:02:16.908Z,98266.14
2024-03-13T18:04:43.709Z,98261.94
2024-03-13T18:07:10.558Z,98263.96
2024-03-13T18:09:37.321Z,98265.48
2024-03-13T18:12:04.912Z,98265.59
2024-03-13T18:14:32.918Z,98266.24
2024-03-13T18:17:00.121Z,98268.80
2024-03-13T18:19:26.762Z,98268.29
2024-03-13T18:21:53.922Z,98263.31
2024-03-13T18:24:21.011Z,98268.88
2024-03-13T18:26:47.945Z,98270.60
2024-03-13T18:29:14.798Z,98276.46
2024-03-13T18:31:41.550Z,98276.71
2024-03-13T18:34:08.727Z,98281.89
2024-03-13T18:36:35.851Z,98284.69
2024-03-13T18:39:02.985Z,98278.19
2024-03-13T18:41:30.104Z,98279.29
2024-03-13T18:43:56.805Z,98280.64
2024-03-13T18:46:23.686Z,98279.25
2024-03-13T18:48:50.438Z,98280.17
2024-03-13T18:51:17.910Z,98283.84
2024-03-13T18:53:44.793Z,98288.06
2024-03-13T18:56:11.577Z,98286.72
2024-03-13T18:58:38.502Z,98287.11
2024-03-13T19:01:05.495Z,98286.14
2024-03-13T19:03:32.253Z,98288.84
2024-03-13T19:05:59.123Z,98289.98
2024-03-13T19:08:25.812Z,98290.16
2024-03-13T19:10:52.672Z,98285.94
2024-03-13T19:13:19.407Z,98284.39
2024-03-13T19:15:46.162Z,98285.17
2024-03-13T19:18:15.107Z,98286.44
2024-03-13T19:20:41.935Z,98287.38
2024-03-13T19:23:08.653Z,98289.20
2024-03-13T19:25:35.843Z,98291.93
2024-03-13T19:28:03.461Z,98292.95
2024-03-13T19:30:30.480Z,98294.52
2024-03-13T19:32:57.563Z,98291.86
2024-03-13T19:35:24.449Z,98297.77
2024-03-13T19:37:51.204Z,98297.75
2024-03-13T19:40:17.942Z,98296.78
2024-03-13T19:42:45.104Z,98299.87
2024-03-13T19:45:11.871Z,98301.22
2024-03-13T19:47:38.723Z,98301.09
2024-03-13T19:50:05.961Z,98304.34
2024-03-13T19:52:32.714Z,98302.17
2024-03-13T19:54:59.764Z,98300.95
2024-03-13T19:57:26.539Z,98298.48
2024-03-13T19:59:53.426Z,98299.73
2024-03-13T20:02:20.059Z,98300.23
2024-03-13T20:04:46.701Z,98302.76
2024-03-13T20:07:13.501Z,98301.95
2024-03-13T20:09:40.477Z,98303.33
2024-03-13T20:12:07.339Z,98305.13
2024-03-13T20:14:34.261Z,98305.16
2024-03-13T20:17:00.917Z,98307.80
2024-03-13T20:19:27.659Z,98304.68
2024-03-13T20:21:54.407Z,98305.61
2024-03-13T20:24:21.212Z,98302.41
2024-03-13T20:26:48.041Z,98294.98
2024-03-13T20:29:14.870Z,98297.20
2024-03-13T20:31:41.813Z,98296.47
2024-03-13T20:34:08.529Z,98302.67
2024-03-13T20:36:35.214Z,98300.29
2024-03-13T20:39:02.019Z,98298.27
2024-03-13T20:41:28.815Z,98300.88
2024-03-13T20:43:55.870Z,98300.43
2024-03-13T20:46:22.527Z,98302.45
2024-03-13T20:48:49.498Z,98303.06
2024-03-13T20:51:16.541Z,98299.18
2024-03-13T20:53:43.434Z,98295.75
2024-03-13T20:56:10.937Z,98298.92
2024-03-13T20:58:37.683Z,98300.48
2024-03-13T21:01:04.558Z,98299.73
2024-03-13T21:03:31.407Z,98304.84
2024-03-13T21:05:58.176Z,98302.48
2024-03-13T21:08:24.983Z,98300.75
2024-03-13T21:10:51.624Z,98300.93
2024-03-13T21:13:18.578Z,98304.54
2024-03-13T21:15:50.196Z,98302.38
2024-03-13T21:18:23.758Z,98304.70
2024-03-13T21:20:50.508Z,98305.68
2024-03-13T21:23:17.139Z,98301.48
2024-03-13T21:25:43.889Z,98304.09
2024-03-13T21:28:10.660Z,98303.20
2024-03-13T21:30:37.421Z,98303.39
2024-03-13T21:33:04.868Z,98303.70
2024-03-13T21:35:31.726Z,98302.62
2024-03-13T21:37:58.471Z,98301.83
2024-03-13T21:40:26.293Z,98299.17
2024-03-13T21:42:52.985Z,98301.84
2024-03-13T21:45:19.876Z,98300.59
2024-03-13T21:47:46.999Z,98296.77
2024-03-13T21:50:13.964Z,98294.07
2024-03-13T21:52:41.112Z,98295.35
2024-03-13T21:55:08.680Z,98295.48
2024-03-13T21:57:35.472Z,98296.95
2024-03-13T22:00:02.370Z,98295.15
2024-03-13T22:02:29.436Z,98293.22
2024-03-13T22:04:56.192Z,98295.82
2024-03-13T22:07:23.031Z,98294.67
2024-03-13T22:09:49.778Z,98293.79
2024-03-13T22:12:16.464Z,98296.72
2024-03-13T22:14:44.571Z,98297.57
2024-03-13T22:17:11.633Z,98294.70
2024-03-13T22:19:38.418Z,98294.74
2024-03-13T22:22:05.317Z,98291.67
2024-03-13T22:24:31.953Z,98291.61
2024-03-13T22:26:58.993Z,98293.70
2024-03-13T22:29:25.812Z,98298.00
2024-03-13T22:31:52.605Z,98299.73
2024-03-13T22:34:19.411Z,98298.09
2024-03-13T22:36:46.151Z,98297.81
2024-03-13T22:39:13.016Z,98298.59
2024-03-13T22:41:43.498Z,98297.77
2024-03-13T22:44:10.307Z,98301.06
2024-03-13T22:46:37.912Z,98299.20
2024-03-13T22:49:04.793Z,98297.09
2024-03-13T22:51:31.674Z,98302.15
2024-03-13T22:53:58.439Z,98303.28
2024-03-13T22:56:26.389Z,98306.38
2024-03-13T22:58:53.846Z,98306.55
2024-03-13T23:01:20.610Z,98308.27
2024-03-13T23:03:47.426Z,98304.56
2024-03-13T23:06:14.167Z,98305.03
2024-03-13T23:08:40.892Z,98306.80
2024-03-13T23:11:07.600Z,98300.96
2024-03-13T23:13:34.710Z,98302.37
2024-03-13T23:16:02.798Z,98301.61
2024-03-13T23:18:29.645Z,98303.42
2024-03-13T23:20:56.702Z,98303.90
2024-03-13T23:23:23.538Z,98304.21
2024-03-13T23:25:50.405Z,98307.84
2024-03-13T23:28:17.127Z,98303.14
2024-03-13T23:30:43.715Z,98302.06
2024-03-13T23:33:10.758Z,98299.95
2024-03-13T23:35:37.752Z,98302.48
2024-03-13T23:38:04.704Z,98298.48
2024-03-13T23:40:31.473Z,98296.32
2024-03-13T23:42:58.194Z,98300.77
2024-03-13T23:45:24.953Z,98299.10
2024-03-13T23:47:51.758Z,98294.77
2024-03-13T23:50:18.548Z,98295.29
2024-03-13T23:52:45.279Z,98292.62
2024-03-13T23:55:12.456Z,98292.27
2024-03-13T23:57:39.451Z,98291.70
